sensor_id;sensor_type;location;lat;lon;timestamp;P1;durP1;ratioP1;P2;durP2;ratioP2
14849;SDS011;7517;48.400;11.770;2024-03-06T00:01:02;7.50;;;6.77;;
14849;SDS011;7517;48.400;11.770;2024-03-06T00:03:30;7.40;;;6.30;;
14849;SDS011;7517;48.400;11.770;2024-03-06T00:05:57;7.20;;;6.07;;
14849;SDS011;7517;48.400;11.770;2024-03-06T00:08:25;7.60;;;6.27;;
14849;SDS011;7517;48.400;11.770;2024-03-06T00:10:53;6.80;;;6.07;;
14849;SDS011;7517;48.400;11.770;2024-03-06T00:13:20;8.43;;;6.57;;
14849;SDS011;7517;48.400;11.770;2024-03-06T00:15:48;7.60;;;6.80;;
14849;SDS011;7517;48.400;11.770;2024-03-06T00:18:17;8.30;;;6.87;;
14849;SDS011;7517;48.400;11.770;2024-03-06T00:20:44;7.17;;;6.37;;
14849;SDS011;7517;48.400;11.770;2024-03-06T00:23:11;6.53;;;5.80;;
14849;SDS011;7517;48.400;11.770;2024-03-06T00:25:38;7.17;;;6.27;;
14849;SDS011;7517;48.400;11.770;2024-03-06T00:28:06;8.73;;;6.70;;
14849;SDS011;7517;48.400;11.770;2024-03-06T00:30:33;7.23;;;6.33;;
14849;SDS011;7517;48.400;11.770;2024-03-06T00:33:01;7.30;;;6.33;;
14849;SDS011;7517;48.400;11.770;2024-03-06T00:35:30;6.93;;;6.10;;
14849;SDS011;7517;48.400;11.770;2024-03-06T00:37:57;6.23;;;5.63;;
14849;SDS011;7517;48.400;11.770;2024-03-06T00:40:27;9.07;;;6.13;;
14849;SDS011;7517;48.400;11.770;2024-03-06T00:42:56;6.70;;;6.00;;
14849;SDS011;7517;48.400;11.770;2024-03-06T00:45:24;6.20;;;5.60;;
14849;SDS011;7517;48.400;11.770;2024-03-06T00:47:51;7.90;;;6.33;;
14849;SDS011;7517;48.400;11.770;2024-03-06T00:50:18;7.33;;;6.20;;
14849;SDS011;7517;48.400;11.770;2024-03-06T00:52:48;7.57;;;6.60;;
14849;SDS011;7517;48.400;11.770;2024-03-06T00:55:16;10.17;;;6.50;;
14849;SDS011;7517;48.400;11.770;2024-03-06T00:57:43;6.93;;;5.70;;
14849;SDS011;7517;48.400;11.770;2024-03-06T01:00:12;7.40;;;6.60;;
14849;SDS011;7517;48.400;11.770;2024-03-06T01:02:41;7.47;;;6.37;;
14849;SDS011;7517;48.400;11.770;2024-03-06T01:05:08;8.63;;;6.63;;
14849;SDS011;7517;48.400;11.770;2024-03-06T01:07:37;8.43;;;6.83;;
14849;SDS011;7517;48.400;11.770;2024-03-06T01:10:07;6.80;;;6.10;;
14849;SDS011;7517;48.400;11.770;2024-03-06T01:12:36;7.10;;;6.33;;
14849;SDS011;7517;48.400;11.770;2024-03-06T01:15:04;6.50;;;5.53;;
14849;SDS011;7517;48.400;11.770;2024-03-06T01:17:35;6.67;;;5.93;;
14849;SDS011;7517;48.400;11.770;2024-03-06T01:20:02;7.40;;;5.70;;
14849;SDS011;7517;48.400;11.770;2024-03-06T01:22:31;6.50;;;5.80;;
14849;SDS011;7517;48.400;11.770;2024-03-06T01:24:59;8.33;;;6.30;;
14849;SDS011;7517;48.400;11.770;2024-03-06T01:27:32;7.63;;;6.50;;
14849;SDS011;7517;48.400;11.770;2024-03-06T01:29:59;7.10;;;6.27;;
14849;SDS011;7517;48.400;11.770;2024-03-06T01:32:26;6.60;;;6.00;;
14849;SDS011;7517;48.400;11.770;2024-03-06T01:34:54;8.47;;;6.60;;
14849;SDS011;7517;48.400;11.770;2024-03-06T01:37:24;8.93;;;6.90;;
14849;SDS011;7517;48.400;11.770;2024-03-06T01:39:52;7.37;;;5.87;;
14849;SDS011;7517;48.400;11.770;2024-03-06T01:42:19;6.93;;;6.23;;
14849;SDS011;7517;48.400;11.770;2024-03-06T01:44:48;7.73;;;6.27;;
14849;SDS011;7517;48.400;11.770;2024-03-06T01:47:16;6.97;;;6.10;;
14849;SDS011;7517;48.400;11.770;2024-03-06T01:49:43;8.53;;;6.83;;
14849;SDS011;7517;48.400;11.770;2024-03-06T01:52:11;6.63;;;5.93;;
14849;SDS011;7517;48.400;11.770;2024-03-06T01:54:42;8.27;;;6.80;;
14849;SDS011;7517;48.400;11.770;2024-03-06T01:57:12;6.93;;;6.17;;
14849;SDS011;7517;48.400;11.770;2024-03-06T01:59:42;7.17;;;6.30;;
14849;SDS011;7517;48.400;11.770;2024-03-06T02:02:12;9.27;;;7.20;;
14849;SDS011;7517;48.400;11.770;2024-03-06T02:04:39;9.73;;;6.30;;
14849;SDS011;7517;48.400;11.770;2024-03-06T02:07:08;9.27;;;6.33;;
14849;SDS011;7517;48.400;11.770;2024-03-06T02:09:36;7.57;;;6.70;;
14849;SDS011;7517;48.400;11.770;2024-03-06T02:12:04;7.97;;;6.50;;
14849;SDS011;7517;48.400;11.770;2024-03-06T02:14:33;9.10;;;7.17;;
14849;SDS011;7517;48.400;11.770;2024-03-06T02:17:00;7.30;;;6.37;;
14849;SDS011;7517;48.400;11.770;2024-03-06T02:19:38;8.27;;;6.50;;
14849;SDS011;7517;48.400;11.770;2024-03-06T02:22:09;7.03;;;6.03;;
14849;SDS011;7517;48.400;11.770;2024-03-06T02:24:37;10.17;;;6.77;;
14849;SDS011;7517;48.400;11.770;2024-03-06T02:27:11;8.37;;;6.40;;
14849;SDS011;7517;48.400;11.770;2024-03-06T02:29:38;8.53;;;6.63;;
14849;SDS011;7517;48.400;11.770;2024-03-06T02:32:05;8.33;;;6.40;;
14849;SDS011;7517;48.400;11.770;2024-03-06T02:34:33;7.87;;;6.67;;
14849;SDS011;7517;48.400;11.770;2024-03-06T02:37:01;9.73;;;7.00;;
14849;SDS011;7517;48.400;11.770;2024-03-06T02:39:29;7.80;;;6.53;;
14849;SDS011;7517;48.400;11.770;2024-03-06T02:41:57;7.40;;;6.30;;
14849;SDS011;7517;48.400;11.770;2024-03-06T02:44:24;8.50;;;7.03;;
14849;SDS011;7517;48.400;11.770;2024-03-06T02:46:51;9.43;;;7.00;;
14849;SDS011;7517;48.400;11.770;2024-03-06T02:49:21;7.57;;;6.77;;
14849;SDS011;7517;48.400;11.770;2024-03-06T02:51:49;8.23;;;6.83;;
14849;SDS011;7517;48.400;11.770;2024-03-06T02:54:16;9.73;;;7.20;;
14849;SDS011;7517;48.400;11.770;2024-03-06T02:56:45;10.07;;;6.60;;
14849;SDS011;7517;48.400;11.770;2024-03-06T02:59:13;9.60;;;7.07;;
14849;SDS011;7517;48.400;11.770;2024-03-06T03:01:41;9.33;;;7.23;;
14849;SDS011;7517;48.400;11.770;2024-03-06T03:04:09;9.20;;;6.67;;
14849;SDS011;7517;48.400;11.770;2024-03-06T03:06:37;8.77;;;6.60;;
14849;SDS011;7517;48.400;11.770;2024-03-06T03:09:04;9.23;;;6.67;;
14849;SDS011;7517;48.400;11.770;2024-03-06T03:11:31;8.40;;;6.50;;
14849;SDS011;7517;48.400;11.770;2024-03-06T03:14:02;9.70;;;6.77;;
14849;SDS011;7517;48.400;11.770;2024-03-06T03:16:29;8.30;;;6.43;;
14849;SDS011;7517;48.400;11.770;2024-03-06T03:18:57;9.60;;;6.80;;
14849;SDS011;7517;48.400;11.770;2024-03-06T03:21:24;10.10;;;7.60;;
14849;SDS011;7517;48.400;11.770;2024-03-06T03:23:52;9.17;;;6.77;;
14849;SDS011;7517;48.400;11.770;2024-03-06T03:26:20;10.13;;;7.57;;
14849;SDS011;7517;48.400;11.770;2024-03-06T03:28:47;9.97;;;7.13;;
14849;SDS011;7517;48.400;11.770;2024-03-06T03:31:16;9.43;;;6.53;;
14849;SDS011;7517;48.400;11.770;2024-03-06T03:33:43;9.73;;;6.97;;
14849;SDS011;7517;48.400;11.770;2024-03-06T03:36:10;9.40;;;6.60;;
14849;SDS011;7517;48.400;11.770;2024-03-06T03:38:38;9.03;;;6.43;;
14849;SDS011;7517;48.400;11.770;2024-03-06T03:41:07;8.97;;;6.70;;
14849;SDS011;7517;48.400;11.770;2024-03-06T03:43:35;10.20;;;6.93;;
14849;SDS011;7517;48.400;11.770;2024-03-06T03:46:02;9.77;;;6.73;;
14849;SDS011;7517;48.400;11.770;2024-03-06T03:48:33;8.03;;;6.87;;
14849;SDS011;7517;48.400;11.770;2024-03-06T03:51:01;9.23;;;6.70;;
14849;SDS011;7517;48.400;11.770;2024-03-06T03:53:30;10.97;;;7.10;;
14849;SDS011;7517;48.400;11.770;2024-03-06T03:55:57;7.83;;;6.40;;
14849;SDS011;7517;48.400;11.770;2024-03-06T03:58:25;9.63;;;6.87;;
14849;SDS011;7517;48.400;11.770;2024-03-06T04:00:52;8.47;;;6.20;;
14849;SDS011;7517;48.400;11.770;2024-03-06T04:03:20;9.37;;;7.43;;
14849;SDS011;7517;48.400;11.770;2024-03-06T04:05:50;8.07;;;7.07;;
14849;SDS011;7517;48.400;11.770;2024-03-06T04:08:17;7.77;;;6.20;;
14849;SDS011;7517;48.400;11.770;2024-03-06T04:10:45;9.53;;;7.30;;
14849;SDS011;7517;48.400;11.770;2024-03-06T04:13:12;10.60;;;7.30;;
14849;SDS011;7517;48.400;11.770;2024-03-06T04:15:41;11.00;;;6.83;;
14849;SDS011;7517;48.400;11.770;2024-03-06T04:18:10;8.13;;;6.43;;
14849;SDS011;7517;48.400;11.770;2024-03-06T04:20:38;10.33;;;7.57;;
14849;SDS011;7517;48.400;11.770;2024-03-06T04:23:07;9.97;;;7.17;;
14849;SDS011;7517;48.400;11.770;2024-03-06T04:25:34;8.30;;;6.70;;
14849;SDS011;7517;48.400;11.770;2024-03-06T04:28:02;10.27;;;7.40;;
14849;SDS011;7517;48.400;11.770;2024-03-06T04:30:32;8.83;;;6.70;;
14849;SDS011;7517;48.400;11.770;2024-03-06T04:33:00;10.23;;;7.23;;
14849;SDS011;7517;48.400;11.770;2024-03-06T04:35:27;8.70;;;7.10;;
14849;SDS011;7517;48.400;11.770;2024-03-06T04:37:55;8.83;;;7.07;;
14849;SDS011;7517;48.400;11.770;2024-03-06T04:40:24;10.23;;;6.90;;
14849;SDS011;7517;48.400;11.770;2024-03-06T04:42:51;9.73;;;6.60;;
14849;SDS011;7517;48.400;11.770;2024-03-06T04:45:18;9.73;;;6.83;;
14849;SDS011;7517;48.400;11.770;2024-03-06T04:47:46;9.17;;;6.30;;
14849;SDS011;7517;48.400;11.770;2024-03-06T04:50:13;9.17;;;6.57;;
14849;SDS011;7517;48.400;11.770;2024-03-06T04:52:41;9.63;;;7.20;;
14849;SDS011;7517;48.400;11.770;2024-03-06T04:55:10;9.00;;;6.43;;
14849;SDS011;7517;48.400;11.770;2024-03-06T04:57:39;11.33;;;7.80;;
14849;SDS011;7517;48.400;11.770;2024-03-06T05:00:11;9.97;;;7.07;;
14849;SDS011;7517;48.400;11.770;2024-03-06T05:02:39;11.93;;;7.53;;
14849;SDS011;7517;48.400;11.770;2024-03-06T05:05:07;11.57;;;7.00;;
14849;SDS011;7517;48.400;11.770;2024-03-06T05:07:36;12.03;;;7.77;;
14849;SDS011;7517;48.400;11.770;2024-03-06T05:10:03;11.00;;;7.33;;
14849;SDS011;7517;48.400;11.770;2024-03-06T05:12:33;10.60;;;7.63;;
14849;SDS011;7517;48.400;11.770;2024-03-06T05:15:05;11.30;;;7.63;;
14849;SDS011;7517;48.400;11.770;2024-03-06T05:17:33;9.70;;;6.57;;
14849;SDS011;7517;48.400;11.770;2024-03-06T05:20:00;16.40;;;7.20;;
14849;SDS011;7517;48.400;11.770;2024-03-06T05:22:29;8.60;;;6.57;;
14849;SDS011;7517;48.400;11.770;2024-03-06T05:24:56;10.67;;;7.30;;
14849;SDS011;7517;48.400;11.770;2024-03-06T05:27:24;11.83;;;7.57;;
14849;SDS011;7517;48.400;11.770;2024-03-06T05:29:51;10.27;;;7.27;;
14849;SDS011;7517;48.400;11.770;2024-03-06T05:32:21;11.63;;;7.83;;
14849;SDS011;7517;48.400;11.770;2024-03-06T05:34:50;10.73;;;7.27;;
14849;SDS011;7517;48.400;11.770;2024-03-06T05:37:17;10.40;;;6.93;;
14849;SDS011;7517;48.400;11.770;2024-03-06T05:39:45;10.80;;;7.53;;
14849;SDS011;7517;48.400;11.770;2024-03-06T05:42:12;11.23;;;7.57;;
14849;SDS011;7517;48.400;11.770;2024-03-06T05:44:40;10.70;;;7.43;;
14849;SDS011;7517;48.400;11.770;2024-03-06T05:47:07;10.47;;;7.50;;
14849;SDS011;7517;48.400;11.770;2024-03-06T05:49:36;10.83;;;7.47;;
14849;SDS011;7517;48.400;11.770;2024-03-06T05:52:03;10.70;;;7.47;;
14849;SDS011;7517;48.400;11.770;2024-03-06T05:54:30;10.37;;;7.63;;
14849;SDS011;7517;48.400;11.770;2024-03-06T05:57:00;13.13;;;7.90;;
14849;SDS011;7517;48.400;11.770;2024-03-06T05:59:28;12.57;;;8.07;;
14849;SDS011;7517;48.400;11.770;2024-03-06T06:01:55;13.50;;;8.27;;
14849;SDS011;7517;48.400;11.770;2024-03-06T06:04:23;11.60;;;8.10;;
14849;SDS011;7517;48.400;11.770;2024-03-06T06:06:52;11.83;;;8.47;;
14849;SDS011;7517;48.400;11.770;2024-03-06T06:09:19;15.60;;;9.13;;
14849;SDS011;7517;48.400;11.770;2024-03-06T06:11:46;11.40;;;8.20;;
14849;SDS011;7517;48.400;11.770;2024-03-06T06:14:15;14.60;;;9.50;;
14849;SDS011;7517;48.400;11.770;2024-03-06T06:16:42;12.80;;;9.07;;
14849;SDS011;7517;48.400;11.770;2024-03-06T06:19:10;11.57;;;8.50;;
14849;SDS011;7517;48.400;11.770;2024-03-06T06:21:37;12.77;;;8.37;;
14849;SDS011;7517;48.400;11.770;2024-03-06T06:24:07;12.80;;;8.10;;
14849;SDS011;7517;48.400;11.770;2024-03-06T06:26:34;11.97;;;8.63;;
14849;SDS011;7517;48.400;11.770;2024-03-06T06:29:01;11.43;;;8.50;;
14849;SDS011;7517;48.400;11.770;2024-03-06T06:31:28;12.53;;;8.50;;
14849;SDS011;7517;48.400;11.770;2024-03-06T06:33:56;11.57;;;8.93;;
14849;SDS011;7517;48.400;11.770;2024-03-06T06:36:23;11.30;;;8.07;;
14849;SDS011;7517;48.400;11.770;2024-03-06T06:38:51;13.03;;;8.97;;
14849;SDS011;7517;48.400;11.770;2024-03-06T06:41:22;11.57;;;8.00;;
14849;SDS011;7517;48.400;11.770;2024-03-06T06:43:50;12.37;;;8.20;;
14849;SDS011;7517;48.400;11.770;2024-03-06T06:46:17;12.37;;;8.33;;
14849;SDS011;7517;48.400;11.770;2024-03-06T06:48:46;12.57;;;8.00;;
14849;SDS011;7517;48.400;11.770;2024-03-06T06:51:14;13.30;;;8.47;;
14849;SDS011;7517;48.400;11.770;2024-03-06T06:53:42;12.40;;;7.83;;
14849;SDS011;7517;48.400;11.770;2024-03-06T06:56:10;10.27;;;7.77;;
14849;SDS011;7517;48.400;11.770;2024-03-06T06:58:39;12.37;;;8.30;;
14849;SDS011;7517;48.400;11.770;2024-03-06T07:01:08;12.83;;;8.77;;
14849;SDS011;7517;48.400;11.770;2024-03-06T07:03:36;15.57;;;9.67;;
14849;SDS011;7517;48.400;11.770;2024-03-06T07:06:04;13.83;;;9.30;;
14849;SDS011;7517;48.400;11.770;2024-03-06T07:08:32;12.63;;;8.57;;
14849;SDS011;7517;48.400;11.770;2024-03-06T07:10:59;13.23;;;9.27;;
14849;SDS011;7517;48.400;11.770;2024-03-06T07:13:26;10.73;;;8.30;;
14849;SDS011;7517;48.400;11.770;2024-03-06T07:15:55;13.13;;;8.57;;
14849;SDS011;7517;48.400;11.770;2024-03-06T07:18:23;13.27;;;8.60;;
14849;SDS011;7517;48.400;11.770;2024-03-06T07:20:50;12.33;;;8.97;;
14849;SDS011;7517;48.400;11.770;2024-03-06T07:23:17;13.37;;;9.30;;
14849;SDS011;7517;48.400;11.770;2024-03-06T07:25:44;12.13;;;8.90;;
14849;SDS011;7517;48.400;11.770;2024-03-06T07:28:12;13.63;;;8.87;;
14849;SDS011;7517;48.400;11.770;2024-03-06T07:30:39;15.00;;;8.77;;
14849;SDS011;7517;48.400;11.770;2024-03-06T07:33:08;14.97;;;9.20;;
14849;SDS011;7517;48.400;11.770;2024-03-06T07:35:35;14.17;;;9.20;;
14849;SDS011;7517;48.400;11.770;2024-03-06T07:38:03;17.40;;;10.27;;
14849;SDS011;7517;48.400;11.770;2024-03-06T07:40:30;15.70;;;9.60;;
14849;SDS011;7517;48.400;11.770;2024-03-06T07:42:57;16.80;;;9.57;;
14849;SDS011;7517;48.400;11.770;2024-03-06T07:45:26;16.87;;;10.03;;
14849;SDS011;7517;48.400;11.770;2024-03-06T07:47:53;13.93;;;9.50;;
14849;SDS011;7517;48.400;11.770;2024-03-06T07:50:22;14.17;;;9.67;;
14849;SDS011;7517;48.400;11.770;2024-03-06T07:52:49;16.70;;;10.43;;
14849;SDS011;7517;48.400;11.770;2024-03-06T07:55:17;13.80;;;9.50;;
14849;SDS011;7517;48.400;11.770;2024-03-06T07:57:47;17.13;;;10.30;;
14849;SDS011;7517;48.400;11.770;2024-03-06T08:00:15;14.87;;;9.87;;
14849;SDS011;7517;48.400;11.770;2024-03-06T08:02:44;13.90;;;9.40;;
14849;SDS011;7517;48.400;11.770;2024-03-06T08:05:15;16.30;;;10.17;;
14849;SDS011;7517;48.400;11.770;2024-03-06T08:07:44;15.83;;;10.80;;
14849;SDS011;7517;48.400;11.770;2024-03-06T08:10:13;16.20;;;10.67;;
14849;SDS011;7517;48.400;11.770;2024-03-06T08:12:44;15.90;;;9.90;;
14849;SDS011;7517;48.400;11.770;2024-03-06T08:15:13;14.67;;;9.43;;
14849;SDS011;7517;48.400;11.770;2024-03-06T08:17:41;17.07;;;10.30;;
14849;SDS011;7517;48.400;11.770;2024-03-06T08:20:10;15.70;;;10.77;;
14849;SDS011;7517;48.400;11.770;2024-03-06T08:22:39;14.10;;;9.93;;
14849;SDS011;7517;48.400;11.770;2024-03-06T08:25:11;15.53;;;10.77;;
14849;SDS011;7517;48.400;11.770;2024-03-06T08:27:39;17.53;;;11.40;;
14849;SDS011;7517;48.400;11.770;2024-03-06T08:30:08;17.87;;;10.87;;
14849;SDS011;7517;48.400;11.770;2024-03-06T08:32:36;15.73;;;9.90;;
14849;SDS011;7517;48.400;11.770;2024-03-06T08:35:04;17.23;;;10.83;;
14849;SDS011;7517;48.400;11.770;2024-03-06T08:37:36;21.33;;;12.00;;
14849;SDS011;7517;48.400;11.770;2024-03-06T08:40:06;17.83;;;11.40;;
14849;SDS011;7517;48.400;11.770;2024-03-06T08:42:39;19.07;;;12.83;;
14849;SDS011;7517;48.400;11.770;2024-03-06T08:45:07;16.80;;;10.73;;
14849;SDS011;7517;48.400;11.770;2024-03-06T08:47:35;19.77;;;11.90;;
14849;SDS011;7517;48.400;11.770;2024-03-06T08:50:03;17.47;;;11.47;;
14849;SDS011;7517;48.400;11.770;2024-03-06T08:52:33;16.90;;;11.73;;
14849;SDS011;7517;48.400;11.770;2024-03-06T08:55:01;17.93;;;11.83;;
14849;SDS011;7517;48.400;11.770;2024-03-06T08:57:30;18.90;;;12.13;;
14849;SDS011;7517;48.400;11.770;2024-03-06T08:59:58;17.53;;;11.37;;
14849;SDS011;7517;48.400;11.770;2024-03-06T09:02:28;20.50;;;13.27;;
14849;SDS011;7517;48.400;11.770;2024-03-06T09:04:58;16.27;;;11.57;;
14849;SDS011;7517;48.400;11.770;2024-03-06T09:07:29;19.77;;;11.80;;
14849;SDS011;7517;48.400;11.770;2024-03-06T09:10:02;17.10;;;12.03;;
14849;SDS011;7517;48.400;11.770;2024-03-06T09:12:32;19.07;;;12.00;;
14849;SDS011;7517;48.400;11.770;2024-03-06T09:15:11;18.07;;;11.90;;
14849;SDS011;7517;48.400;11.770;2024-03-06T09:17:41;15.70;;;11.23;;
14849;SDS011;7517;48.400;11.770;2024-03-06T09:20:10;16.83;;;11.10;;
14849;SDS011;7517;48.400;11.770;2024-03-06T09:22:37;16.53;;;11.23;;
14849;SDS011;7517;48.400;11.770;2024-03-06T09:25:05;18.57;;;11.70;;
14849;SDS011;7517;48.400;11.770;2024-03-06T09:27:34;15.63;;;11.00;;
14849;SDS011;7517;48.400;11.770;2024-03-06T09:30:02;18.10;;;11.93;;
14849;SDS011;7517;48.400;11.770;2024-03-06T09:32:30;16.30;;;11.57;;
14849;SDS011;7517;48.400;11.770;2024-03-06T09:34:57;15.10;;;10.70;;
14849;SDS011;7517;48.400;11.770;2024-03-06T09:37:25;21.10;;;12.83;;
14849;SDS011;7517;48.400;11.770;2024-03-06T09:39:53;16.87;;;11.47;;
14849;SDS011;7517;48.400;11.770;2024-03-06T09:42:21;15.90;;;10.63;;
14849;SDS011;7517;48.400;11.770;2024-03-06T09:44:50;15.17;;;10.90;;
14849;SDS011;7517;48.400;11.770;2024-03-06T09:47:19;17.87;;;10.77;;
14849;SDS011;7517;48.400;11.770;2024-03-06T09:49:50;16.47;;;11.17;;
14849;SDS011;7517;48.400;11.770;2024-03-06T09:52:20;15.23;;;11.37;;
14849;SDS011;7517;48.400;11.770;2024-03-06T09:54:51;15.90;;;11.30;;
14849;SDS011;7517;48.400;11.770;2024-03-06T09:57:21;15.73;;;11.73;;
14849;SDS011;7517;48.400;11.770;2024-03-06T09:59:50;14.70;;;10.73;;
14849;SDS011;7517;48.400;11.770;2024-03-06T10:02:18;20.50;;;11.60;;
14849;SDS011;7517;48.400;11.770;2024-03-06T10:05:01;16.33;;;11.17;;
14849;SDS011;7517;48.400;11.770;2024-03-06T10:07:29;17.77;;;12.57;;
14849;SDS011;7517;48.400;11.770;2024-03-06T10:09:56;15.00;;;10.73;;
14849;SDS011;7517;48.400;11.770;2024-03-06T10:12:23;16.90;;;11.53;;
14849;SDS011;7517;48.400;11.770;2024-03-06T10:14:52;16.13;;;11.60;;
14849;SDS011;7517;48.400;11.770;2024-03-06T10:17:21;16.63;;;11.57;;
14849;SDS011;7517;48.400;11.770;2024-03-06T10:19:58;15.20;;;10.80;;
14849;SDS011;7517;48.400;11.770;2024-03-06T10:22:30;17.30;;;10.90;;
14849;SDS011;7517;48.400;11.770;2024-03-06T10:24:58;16.17;;;10.83;;
14849;SDS011;7517;48.400;11.770;2024-03-06T10:27:25;17.10;;;11.37;;
14849;SDS011;7517;48.400;11.770;2024-03-06T10:30:06;17.53;;;11.37;;
14849;SDS011;7517;48.400;11.770;2024-03-06T10:32:41;14.93;;;10.50;;
14849;SDS011;7517;48.400;11.770;2024-03-06T10:35:17;16.93;;;11.27;;
14849;SDS011;7517;48.400;11.770;2024-03-06T10:37:46;14.97;;;10.70;;
14849;SDS011;7517;48.400;11.770;2024-03-06T10:40:15;14.67;;;10.07;;
14849;SDS011;7517;48.400;11.770;2024-03-06T10:42:44;14.03;;;10.50;;
14849;SDS011;7517;48.400;11.770;2024-03-06T10:45:14;12.93;;;9.70;;
14849;SDS011;7517;48.400;11.770;2024-03-06T10:47:45;14.40;;;10.03;;
14849;SDS011;7517;48.400;11.770;2024-03-06T10:50:14;13.30;;;10.30;;
14849;SDS011;7517;48.400;11.770;2024-03-06T10:52:42;14.83;;;10.00;;
14849;SDS011;7517;48.400;11.770;2024-03-06T10:55:13;12.10;;;9.07;;
14849;SDS011;7517;48.400;11.770;2024-03-06T10:57:43;12.93;;;8.73;;
14849;SDS011;7517;48.400;11.770;2024-03-06T11:00:15;14.30;;;9.43;;
14849;SDS011;7517;48.400;11.770;2024-03-06T11:02:45;11.57;;;8.80;;
14849;SDS011;7517;48.400;11.770;2024-03-06T11:05:24;14.70;;;9.07;;
14849;SDS011;7517;48.400;11.770;2024-03-06T11:07:52;11.43;;;8.57;;
14849;SDS011;7517;48.400;11.770;2024-03-06T11:10:30;11.63;;;8.87;;
14849;SDS011;7517;48.400;11.770;2024-03-06T11:12:58;12.17;;;9.10;;
14849;SDS011;7517;48.400;11.770;2024-03-06T11:15:29;12.43;;;9.00;;
14849;SDS011;7517;48.400;11.770;2024-03-06T11:18:03;11.60;;;8.60;;
14849;SDS011;7517;48.400;11.770;2024-03-06T11:26:47;10.80;;;8.33;;
14849;SDS011;7517;48.400;11.770;2024-03-06T11:29:17;10.73;;;8.57;;
14849;SDS011;7517;48.400;11.770;2024-03-06T11:32:11;10.53;;;8.23;;
14849;SDS011;7517;48.400;11.770;2024-03-06T11:34:38;11.17;;;8.70;;
14849;SDS011;7517;48.400;11.770;2024-03-06T11:37:06;13.57;;;10.47;;
14849;SDS011;7517;48.400;11.770;2024-03-06T11:39:41;11.93;;;9.13;;
14849;SDS011;7517;48.400;11.770;2024-03-06T11:42:14;12.43;;;10.23;;
14849;SDS011;7517;48.400;11.770;2024-03-06T11:44:52;13.47;;;10.83;;
14849;SDS011;7517;48.400;11.770;2024-03-06T11:47:24;13.53;;;10.50;;
14849;SDS011;7517;48.400;11.770;2024-03-06T11:49:51;15.87;;;10.17;;
14849;SDS011;7517;48.400;11.770;2024-03-06T11:52:21;12.60;;;9.00;;
14849;SDS011;7517;48.400;11.770;2024-03-06T11:54:51;11.53;;;9.07;;
14849;SDS011;7517;48.400;11.770;2024-03-06T11:57:19;13.20;;;9.73;;
14849;SDS011;7517;48.400;11.770;2024-03-06T11:59:54;13.37;;;9.07;;
14849;SDS011;7517;48.400;11.770;2024-03-06T12:02:22;13.13;;;10.03;;
14849;SDS011;7517;48.400;11.770;2024-03-06T12:04:51;11.90;;;9.67;;
14849;SDS011;7517;48.400;11.770;2024-03-06T12:07:20;14.00;;;10.77;;
14849;SDS011;7517;48.400;11.770;2024-03-06T12:09:59;13.40;;;10.10;;
14849;SDS011;7517;48.400;11.770;2024-03-06T12:12:27;16.23;;;11.70;;
14849;SDS011;7517;48.400;11.770;2024-03-06T12:18:03;16.07;;;10.73;;
14849;SDS011;7517;48.400;11.770;2024-03-06T12:20:31;15.83;;;10.67;;
14849;SDS011;7517;48.400;11.770;2024-03-06T12:23:01;15.10;;;9.93;;
14849;SDS011;7517;48.400;11.770;2024-03-06T12:25:35;12.87;;;9.00;;
14849;SDS011;7517;48.400;11.770;2024-03-06T12:28:06;11.43;;;8.70;;
14849;SDS011;7517;48.400;11.770;2024-03-06T12:30:43;12.50;;;8.80;;
14849;SDS011;7517;48.400;11.770;2024-03-06T12:33:24;12.40;;;8.80;;
14849;SDS011;7517;48.400;11.770;2024-03-06T12:36:07;13.43;;;9.23;;
14849;SDS011;7517;48.400;11.770;2024-03-06T12:38:43;12.30;;;8.87;;
14849;SDS011;7517;48.400;11.770;2024-03-06T12:41:38;15.07;;;8.73;;
14849;SDS011;7517;48.400;11.770;2024-03-06T12:44:05;14.00;;;9.00;;
14849;SDS011;7517;48.400;11.770;2024-03-06T12:46:33;14.90;;;9.30;;
14849;SDS011;7517;48.400;11.770;2024-03-06T12:49:02;12.57;;;8.23;;
14849;SDS011;7517;48.400;11.770;2024-03-06T12:51:30;12.70;;;8.60;;
14849;SDS011;7517;48.400;11.770;2024-03-06T12:53:58;12.43;;;8.90;;
14849;SDS011;7517;48.400;11.770;2024-03-06T12:56:32;12.23;;;8.40;;
14849;SDS011;7517;48.400;11.770;2024-03-06T12:58:59;14.37;;;9.20;;
14849;SDS011;7517;48.400;11.770;2024-03-06T13:01:26;12.13;;;7.93;;
14849;SDS011;7517;48.400;11.770;2024-03-06T13:03:54;12.43;;;8.63;;
14849;SDS011;7517;48.400;11.770;2024-03-06T13:06:24;12.93;;;8.73;;
14849;SDS011;7517;48.400;11.770;2024-03-06T13:08:53;16.37;;;9.27;;
14849;SDS011;7517;48.400;11.770;2024-03-06T13:11:20;12.77;;;8.93;;
14849;SDS011;7517;48.400;11.770;2024-03-06T13:13:48;11.83;;;7.57;;
14849;SDS011;7517;48.400;11.770;2024-03-06T13:16:18;11.77;;;8.17;;
14849;SDS011;7517;48.400;11.770;2024-03-06T13:18:47;9.90;;;7.50;;
14849;SDS011;7517;48.400;11.770;2024-03-06T13:21:14;12.80;;;9.20;;
14849;SDS011;7517;48.400;11.770;2024-03-06T13:23:43;14.47;;;10.20;;
14849;SDS011;7517;48.400;11.770;2024-03-06T13:26:19;15.90;;;11.03;;
14849;SDS011;7517;48.400;11.770;2024-03-06T13:28:52;13.67;;;9.07;;
14849;SDS011;7517;48.400;11.770;2024-03-06T13:31:20;14.37;;;9.47;;
14849;SDS011;7517;48.400;11.770;2024-03-06T13:33:47;13.00;;;9.23;;
14849;SDS011;7517;48.400;11.770;2024-03-06T13:36:15;14.23;;;10.00;;
14849;SDS011;7517;48.400;11.770;2024-03-06T13:38:43;14.30;;;9.27;;
14849;SDS011;7517;48.400;11.770;2024-03-06T13:41:11;13.07;;;9.70;;
14849;SDS011;7517;48.400;11.770;2024-03-06T13:43:39;17.13;;;10.73;;
14849;SDS011;7517;48.400;11.770;2024-03-06T13:46:06;14.70;;;10.10;;
14849;SDS011;7517;48.400;11.770;2024-03-06T13:48:33;15.90;;;10.53;;
14849;SDS011;7517;48.400;11.770;2024-03-06T13:51:01;14.27;;;9.97;;
14849;SDS011;7517;48.400;11.770;2024-03-06T13:53:30;14.33;;;10.43;;
14849;SDS011;7517;48.400;11.770;2024-03-06T13:55:58;20.33;;;13.07;;
14849;SDS011;7517;48.400;11.770;2024-03-06T13:58:27;18.70;;;12.57;;
14849;SDS011;7517;48.400;11.770;2024-03-06T14:00:55;15.83;;;10.83;;
14849;SDS011;7517;48.400;11.770;2024-03-06T14:03:22;16.77;;;11.97;;
14849;SDS011;7517;48.400;11.770;2024-03-06T14:05:49;20.47;;;11.77;;
14849;SDS011;7517;48.400;11.770;2024-03-06T14:08:20;16.67;;;10.77;;
14849;SDS011;7517;48.400;11.770;2024-03-06T14:10:47;14.47;;;10.20;;
14849;SDS011;7517;48.400;11.770;2024-03-06T14:13:16;15.80;;;10.80;;
14849;SDS011;7517;48.400;11.770;2024-03-06T14:15:43;15.97;;;10.77;;
14849;SDS011;7517;48.400;11.770;2024-03-06T14:18:12;17.43;;;11.63;;
14849;SDS011;7517;48.400;11.770;2024-03-06T14:20:40;16.90;;;10.87;;
14849;SDS011;7517;48.400;11.770;2024-03-06T14:23:07;14.53;;;10.27;;
14849;SDS011;7517;48.400;11.770;2024-03-06T14:25:37;15.73;;;10.33;;
14849;SDS011;7517;48.400;11.770;2024-03-06T14:28:05;16.37;;;10.37;;
14849;SDS011;7517;48.400;11.770;2024-03-06T14:30:34;16.27;;;10.43;;
14849;SDS011;7517;48.400;11.770;2024-03-06T14:33:02;17.67;;;10.50;;
14849;SDS011;7517;48.400;11.770;2024-03-06T14:35:30;16.97;;;10.47;;
14849;SDS011;7517;48.400;11.770;2024-03-06T14:37:58;16.20;;;10.77;;
14849;SDS011;7517;48.400;11.770;2024-03-06T14:40:25;15.17;;;10.37;;
14849;SDS011;7517;48.400;11.770;2024-03-06T14:42:53;15.53;;;10.97;;
14849;SDS011;7517;48.400;11.770;2024-03-06T14:45:20;16.20;;;10.23;;
14849;SDS011;7517;48.400;11.770;2024-03-06T14:47:49;18.87;;;11.63;;
14849;SDS011;7517;48.400;11.770;2024-03-06T14:50:17;16.53;;;11.13;;
14849;SDS011;7517;48.400;11.770;2024-03-06T14:52:44;17.57;;;11.57;;